sensor_id;sensor_type;location;lat;lon;timestamp;P1;durP1;ratioP1;P2;durP2;ratioP2
9675;SDS011;4876;42.656;23.292;2023-04-07T00:01:30;6.20;;;5.37;;
9675;SDS011;4876;42.656;23.292;2023-04-07T00:03:57;11.07;;;7.73;;
9675;SDS011;4876;42.656;23.292;2023-04-07T00:06:24;11.20;;;7.73;;
9675;SDS011;4876;42.656;23.292;2023-04-07T00:08:51;11.73;;;6.90;;
9675;SDS011;4876;42.656;23.292;2023-04-07T00:11:20;13.20;;;8.87;;
9675;SDS011;4876;42.656;23.292;2023-04-07T00:13:46;10.63;;;7.73;;
9675;SDS011;4876;42.656;23.292;2023-04-07T00:16:13;10.90;;;7.67;;
9675;SDS011;4876;42.656;23.292;2023-04-07T00:18:40;9.27;;;6.93;;
9675;SDS011;4876;42.656;23.292;2023-04-07T00:21:07;9.43;;;6.60;;
9675;SDS011;4876;42.656;23.292;2023-04-07T00:23:34;14.20;;;8.10;;
9675;SDS011;4876;42.656;23.292;2023-04-07T00:26:01;12.93;;;7.47;;
9675;SDS011;4876;42.656;23.292;2023-04-07T00:28:29;9.67;;;6.80;;
9675;SDS011;4876;42.656;23.292;2023-04-07T00:30:56;9.50;;;7.27;;
9675;SDS011;4876;42.656;23.292;2023-04-07T00:33:22;11.50;;;8.50;;
9675;SDS011;4876;42.656;23.292;2023-04-07T00:35:50;8.70;;;7.80;;
9675;SDS011;4876;42.656;23.292;2023-04-07T00:38:18;9.13;;;7.40;;
9675;SDS011;4876;42.656;23.292;2023-04-07T00:40:45;10.03;;;7.40;;
9675;SDS011;4876;42.656;23.292;2023-04-07T00:43:12;10.77;;;7.83;;
9675;SDS011;4876;42.656;23.292;2023-04-07T00:45:40;11.23;;;7.43;;
9675;SDS011;4876;42.656;23.292;2023-04-07T00:48:07;11.80;;;7.97;;
9675;SDS011;4876;42.656;23.292;2023-04-07T00:50:35;12.97;;;7.93;;
9675;SDS011;4876;42.656;23.292;2023-04-07T00:53:02;10.83;;;6.47;;
9675;SDS011;4876;42.656;23.292;2023-04-07T00:55:29;10.80;;;8.60;;
9675;SDS011;4876;42.656;23.292;2023-04-07T00:57:56;11.33;;;7.90;;
9675;SDS011;4876;42.656;23.292;2023-04-07T01:00:23;11.57;;;7.37;;
9675;SDS011;4876;42.656;23.292;2023-04-07T01:02:53;9.63;;;7.30;;
9675;SDS011;4876;42.656;23.292;2023-04-07T01:05:25;9.03;;;6.97;;
9675;SDS011;4876;42.656;23.292;2023-04-07T01:08:03;10.40;;;7.73;;
9675;SDS011;4876;42.656;23.292;2023-04-07T01:10:40;11.97;;;7.53;;
9675;SDS011;4876;42.656;23.292;2023-04-07T01:13:14;11.77;;;7.13;;
9675;SDS011;4876;42.656;23.292;2023-04-07T01:15:49;14.57;;;8.37;;
9675;SDS011;4876;42.656;23.292;2023-04-07T01:18:23;10.17;;;7.60;;
9675;SDS011;4876;42.656;23.292;2023-04-07T01:20:55;14.27;;;8.00;;
9675;SDS011;4876;42.656;23.292;2023-04-07T01:26:18;10.90;;;7.17;;
9675;SDS011;4876;42.656;23.292;2023-04-07T01:31:52;13.00;;;7.73;;
9675;SDS011;4876;42.656;23.292;2023-04-07T01:34:21;12.90;;;7.10;;
9675;SDS011;4876;42.656;23.292;2023-04-07T01:36:51;9.87;;;6.93;;
9675;SDS011;4876;42.656;23.292;2023-04-07T01:39:19;13.13;;;7.07;;
9675;SDS011;4876;42.656;23.292;2023-04-07T01:41:47;9.83;;;7.20;;
9675;SDS011;4876;42.656;23.292;2023-04-07T01:44:17;9.60;;;7.47;;
9675;SDS011;4876;42.656;23.292;2023-04-07T01:46:46;9.90;;;7.03;;
9675;SDS011;4876;42.656;23.292;2023-04-07T01:49:15;13.87;;;7.07;;
9675;SDS011;4876;42.656;23.292;2023-04-07T01:51:42;8.10;;;6.67;;
9675;SDS011;4876;42.656;23.292;2023-04-07T01:54:14;11.43;;;7.50;;
9675;SDS011;4876;42.656;23.292;2023-04-07T01:56:41;10.53;;;6.53;;
9675;SDS011;4876;42.656;23.292;2023-04-07T01:59:08;8.90;;;6.87;;
9675;SDS011;4876;42.656;23.292;2023-04-07T02:01:35;9.47;;;7.23;;
9675;SDS011;4876;42.656;23.292;2023-04-07T02:04:06;10.03;;;7.37;;
9675;SDS011;4876;42.656;23.292;2023-04-07T02:06:38;10.30;;;7.37;;
9675;SDS011;4876;42.656;23.292;2023-04-07T02:09:09;9.83;;;6.87;;
9675;SDS011;4876;42.656;23.292;2023-04-07T02:11:38;13.23;;;7.87;;
9675;SDS011;4876;42.656;23.292;2023-04-07T02:14:07;11.90;;;7.47;;
9675;SDS011;4876;42.656;23.292;2023-04-07T02:16:35;11.27;;;7.07;;
9675;SDS011;4876;42.656;23.292;2023-04-07T02:19:03;10.00;;;6.70;;
9675;SDS011;4876;42.656;23.292;2023-04-07T02:21:32;10.10;;;6.80;;
9675;SDS011;4876;42.656;23.292;2023-04-07T02:24:01;8.57;;;7.07;;
9675;SDS011;4876;42.656;23.292;2023-04-07T02:26:32;10.27;;;6.70;;
9675;SDS011;4876;42.656;23.292;2023-04-07T02:29:00;9.07;;;6.27;;
9675;SDS011;4876;42.656;23.292;2023-04-07T02:31:26;9.97;;;6.43;;
9675;SDS011;4876;42.656;23.292;2023-04-07T02:33:53;13.17;;;6.97;;
9675;SDS011;4876;42.656;23.292;2023-04-07T02:36:21;10.53;;;6.00;;
9675;SDS011;4876;42.656;23.292;2023-04-07T02:38:48;7.67;;;6.60;;
9675;SDS011;4876;42.656;23.292;2023-04-07T02:41:15;10.90;;;7.03;;
9675;SDS011;4876;42.656;23.292;2023-04-07T02:43:42;8.27;;;6.30;;
9675;SDS011;4876;42.656;23.292;2023-04-07T02:46:09;10.03;;;6.53;;
9675;SDS011;4876;42.656;23.292;2023-04-07T02:48:36;10.27;;;6.50;;
9675;SDS011;4876;42.656;23.292;2023-04-07T02:51:03;10.50;;;5.93;;
9675;SDS011;4876;42.656;23.292;2023-04-07T02:53:31;10.27;;;6.00;;
9675;SDS011;4876;42.656;23.292;2023-04-07T02:55:58;8.87;;;6.37;;
9675;SDS011;4876;42.656;23.292;2023-04-07T02:58:25;8.00;;;6.30;;
9675;SDS011;4876;42.656;23.292;2023-04-07T03:00:51;8.87;;;6.30;;
9675;SDS011;4876;42.656;23.292;2023-04-07T03:03:18;8.67;;;5.87;;
9675;SDS011;4876;42.656;23.292;2023-04-07T03:05:45;8.90;;;6.50;;
9675;SDS011;4876;42.656;23.292;2023-04-07T03:08:12;8.07;;;6.03;;
9675;SDS011;4876;42.656;23.292;2023-04-07T03:10:40;8.93;;;6.13;;
9675;SDS011;4876;42.656;23.292;2023-04-07T03:13:08;9.33;;;5.77;;
9675;SDS011;4876;42.656;23.292;2023-04-07T03:15:36;10.37;;;5.87;;
9675;SDS011;4876;42.656;23.292;2023-04-07T03:18:03;9.03;;;6.37;;
9675;SDS011;4876;42.656;23.292;2023-04-07T03:20:30;8.60;;;5.57;;
9675;SDS011;4876;42.656;23.292;2023-04-07T03:22:57;7.70;;;6.33;;
9675;SDS011;4876;42.656;23.292;2023-04-07T03:25:24;11.03;;;6.80;;
9675;SDS011;4876;42.656;23.292;2023-04-07T03:27:52;10.80;;;6.77;;
9675;SDS011;4876;42.656;23.292;2023-04-07T03:30:19;13.43;;;7.30;;
9675;SDS011;4876;42.656;23.292;2023-04-07T03:32:46;8.40;;;6.30;;
9675;SDS011;4876;42.656;23.292;2023-04-07T03:35:13;8.80;;;6.23;;
9675;SDS011;4876;42.656;23.292;2023-04-07T03:37:40;8.60;;;7.10;;
9675;SDS011;4876;42.656;23.292;2023-04-07T03:40:07;9.13;;;5.97;;
9675;SDS011;4876;42.656;23.292;2023-04-07T03:42:34;10.47;;;6.07;;
9675;SDS011;4876;42.656;23.292;2023-04-07T03:45:02;9.17;;;5.77;;
9675;SDS011;4876;42.656;23.292;2023-04-07T03:47:29;9.47;;;6.30;;
9675;SDS011;4876;42.656;23.292;2023-04-07T03:49:56;11.80;;;6.03;;
9675;SDS011;4876;42.656;23.292;2023-04-07T03:52:25;9.77;;;6.27;;
9675;SDS011;4876;42.656;23.292;2023-04-07T03:54:52;8.97;;;6.63;;
9675;SDS011;4876;42.656;23.292;2023-04-07T03:57:19;10.60;;;6.90;;
9675;SDS011;4876;42.656;23.292;2023-04-07T03:59:45;11.27;;;6.77;;
9675;SDS011;4876;42.656;23.292;2023-04-07T04:02:16;7.90;;;5.97;;
9675;SDS011;4876;42.656;23.292;2023-04-07T04:04:43;9.70;;;5.97;;
9675;SDS011;4876;42.656;23.292;2023-04-07T04:07:10;9.23;;;6.23;;
9675;SDS011;4876;42.656;23.292;2023-04-07T04:09:36;9.17;;;6.40;;
9675;SDS011;4876;42.656;23.292;2023-04-07T04:12:04;7.03;;;5.90;;
9675;SDS011;4876;42.656;23.292;2023-04-07T04:14:31;10.80;;;6.30;;
9675;SDS011;4876;42.656;23.292;2023-04-07T04:16:57;8.93;;;6.87;;
9675;SDS011;4876;42.656;23.292;2023-04-07T04:19:26;9.47;;;6.10;;
9675;SDS011;4876;42.656;23.292;2023-04-07T04:21:52;9.87;;;6.87;;
9675;SDS011;4876;42.656;23.292;2023-04-07T04:24:19;10.13;;;6.23;;
9675;SDS011;4876;42.656;23.292;2023-04-07T04:26:46;10.77;;;5.90;;
9675;SDS011;4876;42.656;23.292;2023-04-07T04:29:13;12.30;;;6.73;;
9675;SDS011;4876;42.656;23.292;2023-04-07T04:31:40;11.40;;;6.53;;
9675;SDS011;4876;42.656;23.292;2023-04-07T04:34:07;11.70;;;6.80;;
9675;SDS011;4876;42.656;23.292;2023-04-07T04:36:35;11.00;;;7.17;;
9675;SDS011;4876;42.656;23.292;2023-04-07T04:39:02;12.77;;;6.80;;
9675;SDS011;4876;42.656;23.292;2023-04-07T04:41:29;9.23;;;6.07;;
9675;SDS011;4876;42.656;23.292;2023-04-07T04:43:55;18.77;;;7.00;;
9675;SDS011;4876;42.656;23.292;2023-04-07T04:46:22;10.47;;;7.10;;
9675;SDS011;4876;42.656;23.292;2023-04-07T04:48:49;13.67;;;5.77;;
9675;SDS011;4876;42.656;23.292;2023-04-07T04:51:16;11.60;;;7.37;;
9675;SDS011;4876;42.656;23.292;2023-04-07T04:53:45;9.60;;;6.83;;
9675;SDS011;4876;42.656;23.292;2023-04-07T04:56:11;10.80;;;5.70;;
9675;SDS011;4876;42.656;23.292;2023-04-07T04:58:38;12.77;;;6.53;;
9675;SDS011;4876;42.656;23.292;2023-04-07T05:01:06;12.67;;;6.30;;
9675;SDS011;4876;42.656;23.292;2023-04-07T05:03:33;7.20;;;5.43;;
9675;SDS011;4876;42.656;23.292;2023-04-07T05:05:59;11.37;;;5.43;;
9675;SDS011;4876;42.656;23.292;2023-04-07T05:08:26;14.67;;;6.30;;
9675;SDS011;4876;42.656;23.292;2023-04-07T05:10:54;12.83;;;7.77;;
9675;SDS011;4876;42.656;23.292;2023-04-07T05:13:21;9.33;;;5.57;;
9675;SDS011;4876;42.656;23.292;2023-04-07T05:15:49;12.23;;;5.83;;
9675;SDS011;4876;42.656;23.292;2023-04-07T05:18:16;10.80;;;6.57;;
9675;SDS011;4876;42.656;23.292;2023-04-07T05:20:43;8.80;;;6.37;;
9675;SDS011;4876;42.656;23.292;2023-04-07T05:23:10;9.07;;;6.23;;
9675;SDS011;4876;42.656;23.292;2023-04-07T05:25:36;9.23;;;6.37;;
9675;SDS011;4876;42.656;23.292;2023-04-07T05:28:05;10.30;;;6.37;;
9675;SDS011;4876;42.656;23.292;2023-04-07T05:30:31;8.47;;;6.33;;
9675;SDS011;4876;42.656;23.292;2023-04-07T05:32:58;15.93;;;6.70;;
9675;SDS011;4876;42.656;23.292;2023-04-07T05:35:25;8.37;;;5.97;;
9675;SDS011;4876;42.656;23.292;2023-04-07T05:37:52;14.53;;;6.43;;
9675;SDS011;4876;42.656;23.292;2023-04-07T05:40:19;23.07;;;12.30;;
9675;SDS011;4876;42.656;23.292;2023-04-07T05:42:45;20.07;;;12.13;;
9675;SDS011;4876;42.656;23.292;2023-04-07T05:45:13;22.90;;;13.63;;
9675;SDS011;4876;42.656;23.292;2023-04-07T05:47:40;25.50;;;13.37;;
9675;SDS011;4876;42.656;23.292;2023-04-07T05:50:07;19.87;;;12.23;;
9675;SDS011;4876;42.656;23.292;2023-04-07T05:52:36;16.23;;;10.83;;
9675;SDS011;4876;42.656;23.292;2023-04-07T05:55:03;19.00;;;10.80;;
9675;SDS011;4876;42.656;23.292;2023-04-07T05:57:30;29.23;;;13.10;;
9675;SDS011;4876;42.656;23.292;2023-04-07T05:59:58;20.03;;;12.00;;
9675;SDS011;4876;42.656;23.292;2023-04-07T06:02:26;20.57;;;12.50;;
9675;SDS011;4876;42.656;23.292;2023-04-07T06:04:53;24.60;;;13.20;;
9675;SDS011;4876;42.656;23.292;2023-04-07T06:07:20;19.10;;;12.33;;
9675;SDS011;4876;42.656;23.292;2023-04-07T06:09:47;24.13;;;12.80;;
9675;SDS011;4876;42.656;23.292;2023-04-07T06:12:14;16.63;;;10.43;;
9675;SDS011;4876;42.656;23.292;2023-04-07T06:14:41;19.20;;;11.73;;
9675;SDS011;4876;42.656;23.292;2023-04-07T06:17:07;13.97;;;6.30;;
9675;SDS011;4876;42.656;23.292;2023-04-07T06:19:36;11.30;;;6.80;;
9675;SDS011;4876;42.656;23.292;2023-04-07T06:22:03;6.97;;;5.37;;
9675;SDS011;4876;42.656;23.292;2023-04-07T06:24:30;10.47;;;6.30;;
9675;SDS011;4876;42.656;23.292;2023-04-07T06:26:57;8.33;;;5.90;;
9675;SDS011;4876;42.656;23.292;2023-04-07T06:29:25;9.00;;;5.67;;
9675;SDS011;4876;42.656;23.292;2023-04-07T06:31:52;10.10;;;5.23;;
9675;SDS011;4876;42.656;23.292;2023-04-07T06:34:19;8.33;;;6.40;;
9675;SDS011;4876;42.656;23.292;2023-04-07T06:36:47;9.23;;;6.17;;
9675;SDS011;4876;42.656;23.292;2023-04-07T06:39:15;8.63;;;5.70;;
9675;SDS011;4876;42.656;23.292;2023-04-07T06:41:41;9.67;;;5.17;;
9675;SDS011;4876;42.656;23.292;2023-04-07T06:44:08;13.30;;;5.77;;
9675;SDS011;4876;42.656;23.292;2023-04-07T06:46:36;13.57;;;6.00;;
9675;SDS011;4876;42.656;23.292;2023-04-07T06:49:03;7.47;;;4.93;;
9675;SDS011;4876;42.656;23.292;2023-04-07T06:51:29;14.70;;;6.13;;
9675;SDS011;4876;42.656;23.292;2023-04-07T06:53:58;9.17;;;6.53;;
9675;SDS011;4876;42.656;23.292;2023-04-07T06:56:25;11.67;;;6.20;;
9675;SDS011;4876;42.656;23.292;2023-04-07T06:58:52;13.37;;;5.60;;
9675;SDS011;4876;42.656;23.292;2023-04-07T07:01:18;10.80;;;5.43;;
9675;SDS011;4876;42.656;23.292;2023-04-07T07:03:45;11.40;;;5.60;;
9675;SDS011;4876;42.656;23.292;2023-04-07T07:06:12;11.80;;;5.90;;
9675;SDS011;4876;42.656;23.292;2023-04-07T07:08:39;9.07;;;5.93;;
9675;SDS011;4876;42.656;23.292;2023-04-07T07:11:07;13.43;;;6.03;;
9675;SDS011;4876;42.656;23.292;2023-04-07T07:13:34;9.97;;;5.43;;
9675;SDS011;4876;42.656;23.292;2023-04-07T07:16:01;8.10;;;6.17;;
9675;SDS011;4876;42.656;23.292;2023-04-07T07:18:27;11.70;;;5.97;;
9675;SDS011;4876;42.656;23.292;2023-04-07T07:20:58;9.17;;;6.13;;
9675;SDS011;4876;42.656;23.292;2023-04-07T07:23:25;6.10;;;4.90;;
9675;SDS011;4876;42.656;23.292;2023-04-07T07:25:52;9.17;;;6.17;;
9675;SDS011;4876;42.656;23.292;2023-04-07T07:28:20;7.13;;;5.23;;
9675;SDS011;4876;42.656;23.292;2023-04-07T07:30:48;6.57;;;5.27;;
9675;SDS011;4876;42.656;23.292;2023-04-07T07:33:15;7.50;;;5.43;;
9675;SDS011;4876;42.656;23.292;2023-04-07T07:35:41;11.57;;;5.80;;
9675;SDS011;4876;42.656;23.292;2023-04-07T07:38:10;9.90;;;5.97;;
9675;SDS011;4876;42.656;23.292;2023-04-07T07:40:36;15.40;;;6.27;;
9675;SDS011;4876;42.656;23.292;2023-04-07T07:43:03;15.30;;;6.03;;
9675;SDS011;4876;42.656;23.292;2023-04-07T07:45:34;14.47;;;6.27;;
9675;SDS011;4876;42.656;23.292;2023-04-07T07:48:02;8.57;;;5.53;;
9675;SDS011;4876;42.656;23.292;2023-04-07T07:50:29;12.47;;;6.10;;
9675;SDS011;4876;42.656;23.292;2023-04-07T07:52:56;7.27;;;5.30;;
9675;SDS011;4876;42.656;23.292;2023-04-07T07:55:23;13.43;;;5.53;;
9675;SDS011;4876;42.656;23.292;2023-04-07T07:57:50;11.20;;;6.07;;
9675;SDS011;4876;42.656;23.292;2023-04-07T08:00:17;15.27;;;5.20;;
9675;SDS011;4876;42.656;23.292;2023-04-07T08:02:45;9.27;;;5.60;;
9675;SDS011;4876;42.656;23.292;2023-04-07T08:05:12;6.60;;;5.17;;
9675;SDS011;4876;42.656;23.292;2023-04-07T08:07:39;12.43;;;5.93;;
9675;SDS011;4876;42.656;23.292;2023-04-07T08:10:07;20.43;;;6.67;;
9675;SDS011;4876;42.656;23.292;2023-04-07T08:12:34;9.63;;;4.97;;
9675;SDS011;4876;42.656;23.292;2023-04-07T08:15:01;15.63;;;5.53;;
9675;SDS011;4876;42.656;23.292;2023-04-07T08:17:28;7.47;;;5.00;;
9675;SDS011;4876;42.656;23.292;2023-04-07T08:19:56;7.20;;;5.67;;
9675;SDS011;4876;42.656;23.292;2023-04-07T08:22:23;18.97;;;5.67;;
9675;SDS011;4876;42.656;23.292;2023-04-07T08:24:50;6.63;;;5.30;;
9675;SDS011;4876;42.656;23.292;2023-04-07T08:27:16;9.30;;;6.07;;
9675;SDS011;4876;42.656;23.292;2023-04-07T08:29:45;9.10;;;5.57;;
9675;SDS011;4876;42.656;23.292;2023-04-07T08:32:11;11.47;;;6.00;;
9675;SDS011;4876;42.656;23.292;2023-04-07T08:34:38;9.20;;;5.57;;
9675;SDS011;4876;42.656;23.292;2023-04-07T08:37:06;8.63;;;5.80;;
9675;SDS011;4876;42.656;23.292;2023-04-07T08:39:33;6.30;;;4.80;;
9675;SDS011;4876;42.656;23.292;2023-04-07T08:42:00;10.27;;;5.40;;
9675;SDS011;4876;42.656;23.292;2023-04-07T08:44:27;11.07;;;5.67;;
9675;SDS011;4876;42.656;23.292;2023-04-07T08:46:56;7.77;;;5.47;;
9675;SDS011;4876;42.656;23.292;2023-04-07T08:49:24;8.67;;;6.27;;
9675;SDS011;4876;42.656;23.292;2023-04-07T08:51:54;6.63;;;5.17;;
9675;SDS011;4876;42.656;23.292;2023-04-07T08:54:24;7.07;;;5.27;;
9675;SDS011;4876;42.656;23.292;2023-04-07T08:56:51;10.40;;;5.00;;
9675;SDS011;4876;42.656;23.292;2023-04-07T08:59:18;7.60;;;5.97;;
9675;SDS011;4876;42.656;23.292;2023-04-07T09:01:50;9.60;;;4.97;;
9675;SDS011;4876;42.656;23.292;2023-04-07T09:04:18;5.83;;;4.97;;
9675;SDS011;4876;42.656;23.292;2023-04-07T09:06:47;6.73;;;4.60;;
9675;SDS011;4876;42.656;23.292;2023-04-07T09:09:14;11.83;;;5.57;;
9675;SDS011;4876;42.656;23.292;2023-04-07T09:11:43;8.30;;;5.27;;
9675;SDS011;4876;42.656;23.292;2023-04-07T09:14:09;14.77;;;5.40;;
9675;SDS011;4876;42.656;23.292;2023-04-07T09:16:37;7.30;;;5.30;;
9675;SDS011;4876;42.656;23.292;2023-04-07T09:19:04;11.83;;;5.30;;
9675;SDS011;4876;42.656;23.292;2023-04-07T09:21:45;7.83;;;5.03;;
9675;SDS011;4876;42.656;23.292;2023-04-07T09:24:20;7.43;;;5.33;;
9675;SDS011;4876;42.656;23.292;2023-04-07T09:26:49;6.80;;;5.40;;
9675;SDS011;4876;42.656;23.292;2023-04-07T09:29:19;8.93;;;5.00;;
9675;SDS011;4876;42.656;23.292;2023-04-07T09:31:47;8.20;;;5.60;;
9675;SDS011;4876;42.656;23.292;2023-04-07T09:34:26;11.27;;;6.00;;
9675;SDS011;4876;42.656;23.292;2023-04-07T09:36:53;8.87;;;5.80;;
9675;SDS011;4876;42.656;23.292;2023-04-07T09:39:21;7.53;;;6.00;;
9675;SDS011;4876;42.656;23.292;2023-04-07T09:41:49;7.03;;;5.37;;
9675;SDS011;4876;42.656;23.292;2023-04-07T09:44:17;8.97;;;5.97;;
9675;SDS011;4876;42.656;23.292;2023-04-07T09:46:47;14.03;;;6.00;;
9675;SDS011;4876;42.656;23.292;2023-04-07T09:49:14;10.33;;;6.83;;
9675;SDS011;4876;42.656;23.292;2023-04-07T09:51:51;9.07;;;7.03;;
9675;SDS011;4876;42.656;23.292;2023-04-07T09:54:30;9.27;;;6.20;;
9675;SDS011;4876;42.656;23.292;2023-04-07T09:57:00;9.23;;;5.40;;
9675;SDS011;4876;42.656;23.292;2023-04-07T09:59:28;8.80;;;5.97;;
9675;SDS011;4876;42.656;23.292;2023-04-07T10:01:56;7.90;;;5.93;;
9675;SDS011;4876;42.656;23.292;2023-04-07T10:04:24;7.33;;;5.80;;
9675;SDS011;4876;42.656;23.292;2023-04-07T10:06:51;9.17;;;6.00;;
9675;SDS011;4876;42.656;23.292;2023-04-07T10:09:19;7.37;;;6.13;;
9675;SDS011;4876;42.656;23.292;2023-04-07T10:11:49;10.37;;;6.43;;
9675;SDS011;4876;42.656;23.292;2023-04-07T10:14:19;9.23;;;5.83;;
9675;SDS011;4876;42.656;23.292;2023-04-07T10:16:48;7.60;;;5.03;;
9675;SDS011;4876;42.656;23.292;2023-04-07T10:19:16;12.30;;;5.97;;
9675;SDS011;4876;42.656;23.292;2023-04-07T10:21:45;13.17;;;5.77;;
9675;SDS011;4876;42.656;23.292;2023-04-07T10:24:19;13.60;;;4.87;;
9675;SDS011;4876;42.656;23.292;2023-04-07T10:26:56;7.37;;;5.40;;
9675;SDS011;4876;42.656;23.292;2023-04-07T10:29:33;11.87;;;5.53;;
9675;SDS011;4876;42.656;23.292;2023-04-07T10:32:03;8.10;;;5.00;;
9675;SDS011;4876;42.656;23.292;2023-04-07T10:37:22;8.30;;;5.53;;
9675;SDS011;4876;42.656;23.292;2023-04-07T10:39:50;7.40;;;4.97;;
9675;SDS011;4876;42.656;23.292;2023-04-07T10:42:46;8.30;;;5.50;;
9675;SDS011;4876;42.656;23.292;2023-04-07T10:45:15;6.57;;;5.13;;
9675;SDS011;4876;42.656;23.292;2023-04-07T10:50:39;7.97;;;6.00;;
9675;SDS011;4876;42.656;23.292;2023-04-07T10:53:07;6.60;;;5.70;;
9675;SDS011;4876;42.656;23.292;2023-04-07T10:55:36;10.30;;;6.90;;
9675;SDS011;4876;42.656;23.292;2023-04-07T10:58:27;9.93;;;5.83;;
9675;SDS011;4876;42.656;23.292;2023-04-07T11:04:44;10.97;;;6.70;;
9675;SDS011;4876;42.656;23.292;2023-04-07T11:07:16;15.87;;;7.30;;
9675;SDS011;4876;42.656;23.292;2023-04-07T11:10:13;9.97;;;7.07;;
9675;SDS011;4876;42.656;23.292;2023-04-07T11:12:40;7.87;;;6.60;;
9675;SDS011;4876;42.656;23.292;2023-04-07T11:15:21;9.50;;;6.23;;
9675;SDS011;4876;42.656;23.292;2023-04-07T11:20:43;12.43;;;7.13;;
9675;SDS011;4876;42.656;23.292;2023-04-07T11:23:19;13.70;;;6.57;;
9675;SDS011;4876;42.656;23.292;2023-04-07T11:25:58;8.50;;;6.67;;
9675;SDS011;4876;42.656;23.292;2023-04-07T11:29:14;8.07;;;6.70;;
9675;SDS011;4876;42.656;23.292;2023-04-07T11:31:42;9.67;;;6.23;;
9675;SDS011;4876;42.656;23.292;2023-04-07T11:34:15;8.93;;;6.37;;
9675;SDS011;4876;42.656;23.292;2023-04-07T11:36:42;11.37;;;7.03;;
9675;SDS011;4876;42.656;23.292;2023-04-07T11:39:19;9.33;;;7.00;;
9675;SDS011;4876;42.656;23.292;2023-04-07T11:41:49;10.23;;;7.57;;
9675;SDS011;4876;42.656;23.292;2023-04-07T11:44:16;12.07;;;6.63;;
9675;SDS011;4876;42.656;23.292;2023-04-07T11:47:03;10.87;;;7.47;;
9675;SDS011;4876;42.656;23.292;2023-04-07T11:49:48;11.33;;;6.70;;
9675;SDS011;4876;42.656;23.292;2023-04-07T11:52:21;12.10;;;7.00;;
9675;SDS011;4876;42.656;23.292;2023-04-07T11:54:50;12.40;;;7.20;;
9675;SDS011;4876;42.656;23.292;2023-04-07T11:57:24;9.60;;;7.13;;
9675;SDS011;4876;42.656;23.292;2023-04-07T12:00:16;13.27;;;8.17;;
9675;SDS011;4876;42.656;23.292;2023-04-07T12:02:45;13.70;;;7.80;;
9675;SDS011;4876;42.656;23.292;2023-04-07T12:08:26;8.97;;;7.13;;
9675;SDS011;4876;42.656;23.292;2023-04-07T12:11:02;9.43;;;7.10;;
9675;SDS011;4876;42.656;23.292;2023-04-07T12:13:29;10.57;;;7.07;;
9675;SDS011;4876;42.656;23.292;2023-04-07T12:15:57;10.67;;;8.13;;
9675;SDS011;4876;42.656;23.292;2023-04-07T12:18:24;15.17;;;8.03;;
9675;SDS011;4876;42.656;23.292;2023-04-07T12:20:54;10.87;;;7.70;;
9675;SDS011;4876;42.656;23.292;2023-04-07T12:23:23;8.93;;;7.40;;
9675;SDS011;4876;42.656;23.292;2023-04-07T12:25:49;13.63;;;7.20;;
9675;SDS011;4876;42.656;23.292;2023-04-07T12:28:16;10.27;;;6.70;;
9675;SDS011;4876;42.656;23.292;2023-04-07T12:30:43;9.63;;;6.70;;
9675;SDS011;4876;42.656;23.292;2023-04-07T12:33:10;9.47;;;5.83;;
9675;SDS011;4876;42.656;23.292;2023-04-07T12:35:37;10.03;;;7.47;;
9675;SDS011;4876;42.656;23.292;2023-04-07T12:38:05;14.57;;;7.47;;
9675;SDS011;4876;42.656;23.292;2023-04-07T12:40:33;14.23;;;7.00;;
9675;SDS011;4876;42.656;23.292;2023-04-07T12:43:00;12.07;;;6.93;;
9675;SDS011;4876;42.656;23.292;2023-04-07T12:45:27;12.30;;;7.20;;
9675;SDS011;4876;42.656;23.292;2023-04-07T12:47:55;10.50;;;7.13;;
9675;SDS011;4876;42.656;23.292;2023-04-07T12:50:22;13.30;;;6.87;;
9675;SDS011;4876;42.656;23.292;2023-04-07T12:52:49;10.87;;;6.90;;
9675;SDS011;4876;42.656;23.292;2023-04-07T12:55:18;10.27;;;7.23;;
9675;SDS011;4876;42.656;23.292;2023-04-07T12:57:46;14.70;;;7.60;;
9675;SDS011;4876;42.656;23.292;2023-04-07T13:00:13;7.57;;;6.77;;
9675;SDS011;4876;42.656;23.292;2023-04-07T13:02:40;10.57;;;7.93;;
9675;SDS011;4876;42.656;23.292;2023-04-07T13:05:07;12.13;;;7.27;;
9675;SDS011;4876;42.656;23.292;2023-04-07T13:07:35;9.77;;;7.63;;
9675;SDS011;4876;42.656;23.292;2023-04-07T13:10:02;11.97;;;8.40;;
9675;SDS011;4876;42.656;23.292;2023-04-07T13:12:32;14.43;;;7.20;;
9675;SDS011;4876;42.656;23.292;2023-04-07T13:14:59;11.63;;;7.13;;
9675;SDS011;4876;42.656;23.292;2023-04-07T13:17:26;9.67;;;6.57;;
9675;SDS011;4876;42.656;23.292;2023-04-07T13:19:53;8.70;;;6.57;;
9675;SDS011;4876;42.656;23.292;2023-04-07T13:22:20;9.00;;;7.40;;
9675;SDS011;4876;42.656;23.292;2023-04-07T13:24:48;10.60;;;7.83;;
9675;SDS011;4876;42.656;23.292;2023-04-07T13:27:15;7.00;;;5.70;;
9675;SDS011;4876;42.656;23.292;2023-04-07T13:29:43;13.30;;;7.50;;
9675;SDS011;4876;42.656;23.292;2023-04-07T13:32:10;9.20;;;6.33;;
9675;SDS011;4876;42.656;23.292;2023-04-07T13:34:39;14.90;;;7.70;;
9675;SDS011;4876;42.656;23.292;2023-04-07T13:37:05;10.33;;;7.50;;
9675;SDS011;4876;42.656;23.292;2023-04-07T13:39:32;9.13;;;7.03;;
9675;SDS011;4876;42.656;23.292;2023-04-07T13:41:59;10.60;;;6.10;;
9675;SDS011;4876;42.656;23.292;2023-04-07T13:44:26;12.93;;;7.60;;
9675;SDS011;4876;42.656;23.292;2023-04-07T13:46:56;13.77;;;7.47;;
9675;SDS011;4876;42.656;23.292;2023-04-07T13:49:23;11.07;;;7.53;;
9675;SDS011;4876;42.656;23.292;2023-04-07T13:51:49;11.33;;;7.23;;
9675;SDS011;4876;42.656;23.292;2023-04-07T13:54:16;12.03;;;7.53;;
9675;SDS011;4876;42.656;23.292;2023-04-07T13:56:43;11.87;;;7.60;;
9675;SDS011;4876;42.656;23.292;2023-04-07T13:59:11;11.10;;;8.20;;
9675;SDS011;4876;42.656;23.292;2023-04-07T14:01:38;10.57;;;7.77;;
9675;SDS011;4876;42.656;23.292;2023-04-07T14:04:06;5.43;;;4.77;;
9675;SDS011;4876;42.656;23.292;2023-04-07T14:06:33;16.57;;;7.97;;
9675;SDS011;4876;42.656;23.292;2023-04-07T14:09:01;13.43;;;8.50;;
9675;SDS011;4876;42.656;23.292;2023-04-07T14:11:28;13.97;;;8.67;;
9675;SDS011;4876;42.656;23.292;2023-04-07T14:13:55;13.53;;;8.07;;
9675;SDS011;4876;42.656;23.292;2023-04-07T14:16:21;13.47;;;8.10;;
9675;SDS011;4876;42.656;23.292;2023-04-07T14:18:48;9.67;;;7.83;;
9675;SDS011;4876;42.656;23.292;2023-04-07T14:21:17;11.00;;;7.30;;
9675;SDS011;4876;42.656;23.292;2023-04-07T14:23:44;8.87;;;6.60;;
9675;SDS011;4876;42.656;23.292;2023-04-07T14:26:11;16.43;;;8.03;;
9675;SDS011;4876;42.656;23.292;2023-04-07T14:28:38;13.03;;;7.43;;
9675;SDS011;4876;42.656;23.292;2023-04-07T14:31:05;21.77;;;8.43;;
9675;SDS011;4876;42.656;23.292;2023-04-07T14:33:37;14.13;;;7.43;;
9675;SDS011;4876;42.656;23.292;2023-04-07T14:36:04;14.33;;;8.03;;
9675;SDS011;4876;42.656;23.292;2023-04-07T14:38:32;14.93;;;8.97;;
9675;SDS011;4876;42.656;23.292;2023-04-07T14:40:59;11.40;;;8.00;;
9675;SDS011;4876;42.656;23.292;2023-04-07T14:43:27;11.37;;;8.93;;
9675;SDS011;4876;42.656;23.292;2023-04-07T14:45:53;10.93;;;8.13;;
9675;SDS011;4876;42.656;23.292;2023-04-07T14:48:21;13.87;;;7.50;;
9675;SDS011;4876;42.656;23.292;2023-04-07T14:50:48;11.43;;;8.97;;
9675;SDS011;4876;42.656;23.292;2023-04-07T14:53:15;11.60;;;8.07;;
9675;SDS011;4876;42.656;23.292;2023-04-07T14:55:43;13.30;;;7.70;;
9675;SDS011;4876;42.656;23.292;2023-04-07T14:58:10;18.23;;;8.30;;
9675;SDS011;4876;42.656;23.292;2023-04-07T15:00:37;12.67;;;9.17;;
9675;SDS011;4876;42.656;23.292;2023-04-07T15:03:03;8.97;;;7.17;;
9675;SDS011;4876;42.656;23.292;2023-04-07T15:05:30;11.10;;;8.47;;
9675;SDS011;4876;42.656;23.292;2023-04-07T15:07:57;11.83;;;7.60;;
9675;SDS011;4876;42.656;23.292;2023-04-07T15:10:24;11.63;;;8.00;;
9675;SDS011;4876;42.656;23.292;2023-04-07T15:12:54;11.73;;;7.73;;
9675;SDS011;4876;42.656;23.292;2023-04-07T15:15:23;11.67;;;8.00;;
9675;SDS011;4876;42.656;23.292;2023-04-07T15:17:50;16.93;;;8.90;;
9675;SDS011;4876;42.656;23.292;2023-04-07T15:20:16;10.33;;;8.03;;
9675;SDS011;4876;42.656;23.292;2023-04-07T15:22:43;10.27;;;6.53;;